createdAt,value
2023-04-15T00:00:01.125Z,2.60
2023-04-15T00:01:01.411Z,2.80
2023-04-15T00:02:01.184Z,2.40
2023-04-15T00:03:02.179Z,2.40
2023-04-15T00:04:01.170Z,2.60
2023-04-15T00:05:01.105Z,2.30
2023-04-15T00:06:01.100Z,2.30
2023-04-15T00:07:01.125Z,2.70
2023-04-15T00:08:01.359Z,2.30
2023-04-15T00:09:01.417Z,2.30
2023-04-15T00:10:01.024Z,2.20
2023-04-15T00:11:01.016Z,2.00
2023-04-15T00:12:01.027Z,2.60
2023-04-15T00:13:01.006Z,3.30
2023-04-15T00:14:00.991Z,2.30
2023-04-15T00:15:01.342Z,2.50
2023-04-15T00:16:00.976Z,2.00
2023-04-15T00:17:01.108Z,2.10
2023-04-15T00:18:00.962Z,2.00
2023-04-15T00:19:01.099Z,2.00
2023-04-15T00:20:00.929Z,2.30
2023-04-15T00:21:00.962Z,2.20
2023-04-15T00:22:01.169Z,2.70
2023-04-15T00:23:00.883Z,2.30
2023-04-15T00:24:00.898Z,2.00
2023-04-15T00:25:00.891Z,2.30
2023-04-15T00:26:00.841Z,2.10
2023-04-15T00:27:00.984Z,2.20
2023-04-15T00:28:00.868Z,3.00
2023-04-15T00:29:01.472Z,2.80
2023-04-15T00:30:00.842Z,2.40
2023-04-15T00:31:00.889Z,2.40
2023-04-15T00:32:00.802Z,2.40
2023-04-15T00:33:00.896Z,1.90
2023-04-15T00:34:00.800Z,2.90
2023-04-15T00:35:00.765Z,2.40
2023-04-15T00:36:01.054Z,2.50
2023-04-15T00:37:00.775Z,2.40
2023-04-15T00:38:00.731Z,2.70
2023-04-15T00:39:00.983Z,2.20
2023-04-15T00:40:00.741Z,2.40
2023-04-15T00:41:00.752Z,2.30
2023-04-15T00:42:00.719Z,2.50
2023-04-15T00:43:00.984Z,2.40
2023-04-15T00:44:00.680Z,2.30
2023-04-15T00:45:00.708Z,2.60
2023-04-15T00:46:00.693Z,2.20
2023-04-15T00:47:00.664Z,2.80
2023-04-15T00:48:00.722Z,2.30
2023-04-15T00:49:00.821Z,2.50
2023-04-15T00:50:00.978Z,2.70
2023-04-15T00:51:00.666Z,2.50
2023-04-15T00:52:00.608Z,2.80
2023-04-15T00:53:00.592Z,2.80
2023-04-15T00:54:00.608Z,2.60
2023-04-15T00:55:00.563Z,3.40
2023-04-15T00:56:00.554Z,2.80
2023-04-15T00:57:00.890Z,2.10
2023-04-15T00:58:00.547Z,3.00
2023-04-15T00:59:00.745Z,2.50
2023-04-15T01:00:00.535Z,2.90
2023-04-15T01:01:00.521Z,2.90
2023-04-15T01:02:00.586Z,2.70
2023-04-15T01:03:00.763Z,2.80
2023-04-15T01:04:00.844Z,2.70
2023-04-15T01:05:00.473Z,2.80
2023-04-15T01:06:03.430Z,2.60
2023-04-15T01:07:00.453Z,2.80
2023-04-15T01:08:00.472Z,2.50
2023-04-15T01:09:01.010Z,2.90
2023-04-15T01:10:00.401Z,3.10
2023-04-15T01:11:00.682Z,2.80
2023-04-15T01:12:00.380Z,3.00
2023-04-15T01:13:00.384Z,3.10
2023-04-15T01:14:00.357Z,2.40
2023-04-15T01:15:00.393Z,2.70
2023-04-15T01:16:00.413Z,3.00
2023-04-15T01:17:00.340Z,3.30
2023-04-15T01:18:00.646Z,3.40
2023-04-15T01:19:00.611Z,3.20
2023-04-15T01:20:00.361Z,3.00
2023-04-15T01:21:00.333Z,3.00
2023-04-15T01:22:00.290Z,2.80
2023-04-15T01:23:00.279Z,3.10
2023-04-15T01:24:00.265Z,2.60
2023-04-15T01:25:00.586Z,2.50
2023-04-15T01:26:00.237Z,3.70
2023-04-15T01:27:00.520Z,2.50
2023-04-15T01:28:00.221Z,2.40
2023-04-15T01:29:00.442Z,3.50
2023-04-15T01:30:00.188Z,2.80
2023-04-15T01:31:00.203Z,3.10
2023-04-15T01:32:00.444Z,2.90
2023-04-15T01:33:00.278Z,2.60
2023-04-15T01:34:00.219Z,2.90
2023-04-15T01:35:00.190Z,3.60
2023-04-15T01:36:00.131Z,3.00
2023-04-15T01:37:00.125Z,3.30
2023-04-15T01:38:00.143Z,2.80
2023-04-15T01:39:00.353Z,2.70
2023-04-15T01:40:00.099Z,2.50
2023-04-15T01:41:00.096Z,3.00
2023-04-15T01:42:00.057Z,2.50
2023-04-15T01:43:00.098Z,2.90
2023-04-15T01:44:00.325Z,2.90
2023-04-15T01:45:00.115Z,3.00
2023-04-15T01:46:00.032Z,2.70
2023-04-15T01:47:00.046Z,2.80
2023-04-15T01:48:00.050Z,3.10
2023-04-15T01:49:00.237Z,3.20
2023-04-15T01:49:59.972Z,2.70
2023-04-15T01:51:00.029Z,2.90
2023-04-15T01:51:59.977Z,2.90
2023-04-15T01:52:59.965Z,2.40
2023-04-15T01:53:59.945Z,3.10
2023-04-15T01:54:59.934Z,2.70
2023-04-15T01:56:00.203Z,2.90
2023-04-15T01:57:00.023Z,2.40
2023-04-15T01:57:59.892Z,3.40
2023-04-15T01:59:00.053Z,2.40
2023-04-15T01:59:59.895Z,2.60
2023-04-15T02:00:59.953Z,3.00
2023-04-15T02:02:00.022Z,2.60
2023-04-15T02:03:00.386Z,2.50
2023-04-15T02:03:59.880Z,2.00
2023-04-15T02:04:59.846Z,3.50
2023-04-15T02:05:59.820Z,2.60
2023-04-15T02:07:00.522Z,3.00
2023-04-15T02:07:59.800Z,2.50
2023-04-15T02:09:00.202Z,2.60
2023-04-15T02:10:00.096Z,2.80
2023-04-15T02:10:59.774Z,3.10
2023-04-15T02:11:59.757Z,3.00
2023-04-15T02:12:59.745Z,2.90
2023-04-15T02:13:59.751Z,3.00
2023-04-15T02:14:59.791Z,2.90
2023-04-15T02:15:59.742Z,3.00
2023-04-15T02:17:00.063Z,2.90
2023-04-15T02:17:59.706Z,2.90
2023-04-15T02:19:00.022Z,3.00
2023-04-15T02:19:59.676Z,2.60
2023-04-15T02:20:59.699Z,2.60
2023-04-15T02:21:59.654Z,2.40
2023-04-15T02:22:59.647Z,2.40
2023-04-15T02:23:59.907Z,2.70
2023-04-15T02:24:59.668Z,3.10
2023-04-15T02:25:59.613Z,2.20
2023-04-15T02:26:59.664Z,2.60
2023-04-15T02:27:59.592Z,3.30
2023-04-15T02:28:59.843Z,2.50
2023-04-15T02:29:59.601Z,3.50
2023-04-15T02:30:59.881Z,2.70
2023-04-15T02:31:59.571Z,3.20
2023-04-15T02:32:59.593Z,3.00
2023-04-15T02:33:59.562Z,3.20
2023-04-15T02:34:59.539Z,2.20
2023-04-15T02:35:59.515Z,2.80
2023-04-15T02:36:59.553Z,3.10
2023-04-15T02:37:59.819Z,3.20
2023-04-15T02:38:59.757Z,2.60
2023-04-15T02:39:59.492Z,2.60
2023-04-15T02:40:59.552Z,3.10
2023-04-15T02:41:59.457Z,3.40
2023-04-15T02:42:59.434Z,3.10
2023-04-15T02:43:59.438Z,2.20
2023-04-15T02:44:59.740Z,2.40
2023-04-15T02:45:59.438Z,2.60
2023-04-15T02:46:59.399Z,2.80
2023-04-15T02:47:59.481Z,2.60
2023-04-15T02:48:59.714Z,3.00
2023-04-15T02:49:59.380Z,2.90
2023-04-15T02:50:59.561Z,2.90
2023-04-15T02:51:59.655Z,3.00
2023-04-15T02:52:59.340Z,2.40
2023-04-15T02:53:59.337Z,3.90
2023-04-15T02:54:59.319Z,3.30
2023-04-15T02:55:59.345Z,2.20
2023-04-15T02:56:59.339Z,2.20
2023-04-15T02:57:59.280Z,2.90
2023-04-15T02:58:59.680Z,2.50
2023-04-15T02:59:59.283Z,2.90
2023-04-15T03:00:59.286Z,2.70
2023-04-15T03:01:59.254Z,2.80
2023-04-15T03:02:59.460Z,2.70
2023-04-15T03:03:59.311Z,3.00
2023-04-15T03:04:59.195Z,2.60
2023-04-15T03:05:59.487Z,2.40
2023-04-15T03:06:59.185Z,2.90
2023-04-15T03:07:59.184Z,3.00
2023-04-15T03:08:59.400Z,3.00
2023-04-15T03:09:59.150Z,2.40
2023-04-15T03:10:59.165Z,2.60
2023-04-15T03:11:59.145Z,2.80
2023-04-15T03:12:59.424Z,3.10
2023-04-15T03:13:59.109Z,2.40
2023-04-15T03:14:59.149Z,3.00
2023-04-15T03:15:59.119Z,3.30
2023-04-15T03:16:59.084Z,3.60
2023-04-15T03:17:59.108Z,3.40
2023-04-15T03:18:59.205Z,2.50
2023-04-15T03:19:59.383Z,3.00
2023-04-15T03:20:59.101Z,3.10
2023-04-15T03:21:59.051Z,3.00
2023-04-15T03:22:59.014Z,3.00
2023-04-15T03:23:59.035Z,4.00
2023-04-15T03:24:59.050Z,3.30
2023-04-15T03:25:59.006Z,3.30
2023-04-15T03:26:59.324Z,3.30
2023-04-15T03:27:59.012Z,3.30
2023-04-15T03:28:59.034Z,3.20
2023-04-15T03:29:58.973Z,3.70
2023-04-15T03:30:59.050Z,2.40
2023-04-15T03:31:58.942Z,2.60
2023-04-15T03:32:59.006Z,2.40
2023-04-15T03:33:59.232Z,3.00
2023-04-15T03:34:58.897Z,3.00
2023-04-15T03:35:58.917Z,3.10
2023-04-15T03:36:58.908Z,2.90
2023-04-15T03:37:58.889Z,2.60
2023-04-15T03:38:59.026Z,2.70
2023-04-15T03:39:58.875Z,3.30
2023-04-15T03:40:59.137Z,2.50
2023-04-15T03:41:58.863Z,3.00
2023-04-15T03:42:58.832Z,3.10
2023-04-15T03:43:58.836Z,2.90
2023-04-15T03:44:58.848Z,2.90
2023-04-15T03:46:00.206Z,3.10
2023-04-15T03:46:58.764Z,3.00
2023-04-15T03:48:11.520Z,2.90
2023-04-15T03:48:58.820Z,2.70
2023-04-15T03:49:58.751Z,2.40
2023-04-15T03:50:58.769Z,2.60
2023-04-15T03:51:58.735Z,3.10
2023-04-15T03:52:58.714Z,3.20
2023-04-15T03:53:58.701Z,3.60
2023-04-15T03:54:58.991Z,3.20
2023-04-15T03:55:58.692Z,2.70
2023-04-15T03:56:58.721Z,3.30
2023-04-15T03:57:58.691Z,3.40
2023-04-15T03:58:58.988Z,3.00
2023-04-15T03:59:58.643Z,2.60
2023-04-15T04:00:58.641Z,3.20
2023-04-15T04:01:59.044Z,3.10
2023-04-15T04:02:58.855Z,2.40
2023-04-15T04:03:58.733Z,3.40
2023-04-15T04:04:58.646Z,2.90
2023-04-15T04:05:58.590Z,3.00
2023-04-15T04:06:58.571Z,3.30
2023-04-15T04:07:58.575Z,3.50
2023-04-15T04:08:58.955Z,2.80
2023-04-15T04:09:58.546Z,3.10
2023-04-15T04:10:58.533Z,3.60
2023-04-15T04:11:58.524Z,2.80
2023-04-15T04:12:58.534Z,3.30
2023-04-15T04:13:58.519Z,3.10
2023-04-15T04:14:58.549Z,3.40
2023-04-15T04:15:58.879Z,2.90
2023-04-15T04:16:58.475Z,3.10
2023-04-15T04:17:58.553Z,3.60
2023-04-15T04:18:58.463Z,3.60
2023-04-15T04:19:58.452Z,3.10
2023-04-15T04:20:58.475Z,3.30
2023-04-15T04:21:58.404Z,3.30
2023-04-15T04:22:58.680Z,3.20
2023-04-15T04:23:58.498Z,3.20
2023-04-15T04:24:58.393Z,3.30
2023-04-15T04:25:58.372Z,2.90
2023-04-15T04:26:58.420Z,3.60
2023-04-15T04:27:58.362Z,3.50
2023-04-15T04:28:58.434Z,3.70
2023-04-15T04:29:58.601Z,3.70
2023-04-15T04:30:58.329Z,3.20
2023-04-15T04:31:58.339Z,3.40
2023-04-15T04:32:58.366Z,3.10
2023-04-15T04:33:58.303Z,3.20
2023-04-15T04:34:58.295Z,2.90
2023-04-15T04:35:58.258Z,3.40
2023-04-15T04:36:58.533Z,2.90
2023-04-15T04:37:58.242Z,3.50
2023-04-15T04:38:58.340Z,3.40
2023-04-15T04:39:58.226Z,2.90
2023-04-15T04:40:58.215Z,3.10
2023-04-15T04:41:58.210Z,2.80
2023-04-15T04:42:58.191Z,3.30
2023-04-15T04:43:58.547Z,3.10
2023-04-15T04:44:58.233Z,3.50
2023-04-15T04:45:58.188Z,3.40
2023-04-15T04:46:58.136Z,3.10
2023-04-15T04:47:58.179Z,4.00
2023-04-15T04:48:58.121Z,3.00
2023-04-15T04:49:58.117Z,3.70
2023-04-15T04:50:58.576Z,3.60
2023-04-15T04:51:58.205Z,3.00
2023-04-15T04:52:58.078Z,3.30
2023-04-15T04:53:58.135Z,2.90
2023-04-15T04:54:58.121Z,3.40
2023-04-15T04:55:58.128Z,3.90
2023-04-15T04:56:58.195Z,3.60
2023-04-15T04:57:58.449Z,3.10
2023-04-15T04:58:58.207Z,3.90
2023-04-15T04:59:58.111Z,3.40
2023-04-15T05:00:58.136Z,3.10
2023-04-15T05:01:58.143Z,3.70
2023-04-15T05:02:58.122Z,4.10
2023-04-15T05:03:58.049Z,2.80
2023-04-15T05:04:58.273Z,3.20
2023-04-15T05:05:57.971Z,4.00
2023-04-15T05:06:57.955Z,4.00
2023-04-15T05:07:57.920Z,3.60
2023-04-15T05:08:57.954Z,3.20
2023-04-15T05:09:57.906Z,3.80
2023-04-15T05:10:57.907Z,3.60
2023-04-15T05:11:58.189Z,3.40
2023-04-15T05:12:57.893Z,3.30
2023-04-15T05:13:57.892Z,3.40
2023-04-15T05:14:57.917Z,3.30
2023-04-15T05:15:57.884Z,3.90
2023-04-15T05:16:57.847Z,3.50
2023-04-15T05:17:57.884Z,3.80
2023-04-15T05:18:58.127Z,3.30
2023-04-15T05:19:57.809Z,3.90
2023-04-15T05:20:57.841Z,3.90
2023-04-15T05:21:57.822Z,4.00
2023-04-15T05:22:57.814Z,3.30
2023-04-15T05:23:57.766Z,3.30
2023-04-15T05:24:57.822Z,3.50
2023-04-15T05:25:58.084Z,3.50
2023-04-15T05:26:57.819Z,3.60
2023-04-15T05:27:57.763Z,3.50
2023-04-15T05:28:57.727Z,4.20
2023-04-15T05:29:57.774Z,2.70
2023-04-15T05:30:57.750Z,3.90
2023-04-15T05:31:57.721Z,3.60
2023-04-15T05:32:57.809Z,3.90
2023-04-15T05:33:57.717Z,4.20
2023-04-15T05:34:57.697Z,2.90
2023-04-15T05:35:57.666Z,3.60
2023-04-15T05:36:57.659Z,4.20
2023-04-15T05:37:57.629Z,3.40
2023-04-15T05:38:57.938Z,4.10
2023-04-15T05:39:57.675Z,3.60
2023-04-15T05:40:57.598Z,2.80
2023-04-15T05:41:57.648Z,3.10
2023-04-15T05:42:57.603Z,3.20
2023-04-15T05:43:57.601Z,4.20
2023-04-15T05:44:57.661Z,4.00
2023-04-15T05:45:57.602Z,3.10
2023-04-15T05:46:57.535Z,3.30
2023-04-15T05:47:57.642Z,3.40
2023-04-15T05:48:57.506Z,3.00
2023-04-15T05:49:57.532Z,3.40
2023-04-15T05:50:57.833Z,3.70
2023-04-15T05:51:57.509Z,4.10
2023-04-15T05:52:57.489Z,3.40
2023-04-15T05:53:57.503Z,3.10
2023-04-15T05:54:57.453Z,3.40
2023-04-15T05:55:57.465Z,2.70
2023-04-15T05:56:57.483Z,3.90
2023-04-15T05:57:57.431Z,3.40
2023-04-15T05:58:57.407Z,3.80
2023-04-15T05:59:57.450Z,3.80
2023-04-15T06:00:57.416Z,4.00
2023-04-15T06:01:57.445Z,3.40
2023-04-15T06:02:57.891Z,3.10
2023-04-15T06:03:57.553Z,4.00
2023-04-15T06:04:57.408Z,3.60
2023-04-15T06:05:57.334Z,4.10
2023-04-15T06:06:57.332Z,3.40
2023-04-15T06:07:57.357Z,3.80
2023-04-15T06:08:57.363Z,4.00
2023-04-15T06:09:57.616Z,3.80
2023-04-15T06:10:57.288Z,3.70
2023-04-15T06:11:57.312Z,3.30
2023-04-15T06:12:57.303Z,4.30
2023-04-15T06:13:57.287Z,3.40
2023-04-15T06:14:58.975Z,3.40
2023-04-15T06:15:57.310Z,3.40
2023-04-15T06:16:57.529Z,3.50
2023-04-15T06:17:57.271Z,3.40
2023-04-15T06:18:57.225Z,3.20
2023-04-15T06:19:57.221Z,3.20
2023-04-15T06:20:57.232Z,3.60
2023-04-15T06:21:57.182Z,3.70
2023-04-15T06:22:57.180Z,3.50
2023-04-15T06:23:57.477Z,3.50
2023-04-15T06:24:57.164Z,3.20
2023-04-15T06:25:57.126Z,3.50
2023-04-15T06:26:57.221Z,3.60
2023-04-15T06:27:57.131Z,3.10
2023-04-15T06:28:57.119Z,3.70
2023-04-15T06:29:57.100Z,3.20
2023-04-15T06:30:57.388Z,4.40
2023-04-15T06:31:57.165Z,2.70
2023-04-15T06:32:57.180Z,3.40
2023-04-15T06:33:57.070Z,3.30
2023-04-15T06:34:57.081Z,4.00
2023-04-15T06:35:57.049Z,3.80
2023-04-15T06:36:57.045Z,4.00
2023-04-15T06:37:57.352Z,3.80
2023-04-15T06:38:57.086Z,3.00
2023-04-15T06:39:57.011Z,4.00
2023-04-15T06:40:56.988Z,4.10
2023-04-15T06:41:57.017Z,3.20
2023-04-15T06:42:56.986Z,4.00
2023-04-15T06:43:56.984Z,2.90
2023-04-15T06:44:57.307Z,3.70
2023-04-15T06:45:57.014Z,3.40
2023-04-15T06:46:56.954Z,4.00
2023-04-15T06:47:57.009Z,4.10
2023-04-15T06:48:56.934Z,4.20
2023-04-15T06:49:56.908Z,3.90
2023-04-15T06:50:56.954Z,3.20
2023-04-15T06:51:57.192Z,3.40
2023-04-15T06:52:56.858Z,3.50
2023-04-15T06:53:56.897Z,3.20
2023-04-15T06:54:56.841Z,3.30
2023-04-15T06:55:56.823Z,3.80
2023-04-15T06:56:56.861Z,3.80
2023-04-15T06:57:56.837Z,3.30
2023-04-15T06:58:56.806Z,3.00
2023-04-15T06:59:56.789Z,3.30
2023-04-15T07:00:56.806Z,3.50
2023-04-15T07:01:56.794Z,4.30
2023-04-15T07:02:56.828Z,4.10
2023-04-15T07:03:56.825Z,3.30
2023-04-15T07:04:57.024Z,4.00
2023-04-15T07:05:56.721Z,3.60
2023-04-15T07:06:56.719Z,4.60
2023-04-15T07:07:56.708Z,4.60
2023-04-15T07:08:56.743Z,3.50
2023-04-15T07:09:56.713Z,3.10
2023-04-15T07:10:56.679Z,3.70
2023-04-15T07:11:56.694Z,4.00
2023-04-15T07:12:56.695Z,4.00
2023-04-15T07:13:56.680Z,3.70
2023-04-15T07:14:56.745Z,3.30
2023-04-15T07:15:56.621Z,4.00
2023-04-15T07:16:56.720Z,3.30
2023-04-15T07:17:56.677Z,4.00
2023-04-15T07:18:56.617Z,3.50
2023-04-15T07:19:56.579Z,3.90
2023-04-15T07:20:56.662Z,3.80
2023-04-15T07:21:56.584Z,3.90
2023-04-15T07:22:56.543Z,3.00
2023-04-15T07:23:56.531Z,3.70
2023-04-15T07:24:56.572Z,3.20
2023-04-15T07:25:56.545Z,3.40
2023-04-15T07:26:58.499Z,3.90
2023-04-15T07:27:56.553Z,3.40
2023-04-15T07:28:56.764Z,3.60
2023-04-15T07:29:56.497Z,3.30
2023-04-15T07:30:56.570Z,3.80
2023-04-15T07:31:56.455Z,3.50
2023-04-15T07:32:56.553Z,3.90
2023-04-15T07:33:56.440Z,3.80
2023-04-15T07:34:56.445Z,4.00
2023-04-15T07:35:56.410Z,3.70
2023-04-15T07:36:56.414Z,4.10
2023-04-15T07:37:56.402Z,3.50
2023-04-15T07:38:56.421Z,3.30
2023-04-15T07:39:56.401Z,4.30
2023-04-15T07:40:56.673Z,3.00
2023-04-15T07:41:56.366Z,3.80
2023-04-15T07:42:56.438Z,3.20
2023-04-15T07:43:56.344Z,4.10
2023-04-15T07:44:56.425Z,4.50
2023-04-15T07:45:56.362Z,3.20
2023-04-15T07:46:56.312Z,3.30
2023-04-15T07:47:56.332Z,3.70
2023-04-15T07:48:56.345Z,3.40
2023-04-15T07:49:56.290Z,3.60
2023-04-15T07:50:56.336Z,3.60
2023-04-15T07:51:56.271Z,3.50
2023-04-15T07:52:56.268Z,4.60
2023-04-15T07:53:57.441Z,3.70
2023-04-15T07:54:56.235Z,3.30
2023-04-15T07:55:56.453Z,2.90
2023-04-15T07:56:56.617Z,3.00
2023-04-15T07:57:56.224Z,3.60
2023-04-15T07:58:56.209Z,3.30
2023-04-15T07:59:56.223Z,3.40
2023-04-15T08:00:56.186Z,3.10
2023-04-15T08:01:56.248Z,3.30
2023-04-15T08:02:56.427Z,3.90
2023-04-15T08:03:56.323Z,3.90
2023-04-15T08:04:56.187Z,3.40
2023-04-15T08:05:56.165Z,3.40
2023-04-15T08:06:56.448Z,4.70
2023-04-15T08:07:56.118Z,4.30
2023-04-15T08:08:56.114Z,3.00
2023-04-15T08:09:56.096Z,3.30
2023-04-15T08:10:56.133Z,3.20
2023-04-15T08:11:56.095Z,3.60
2023-04-15T08:12:56.072Z,3.90
2023-04-15T08:13:56.063Z,2.90
2023-04-15T08:14:56.105Z,3.10
2023-04-15T08:15:56.105Z,3.00
2023-04-15T08:16:56.129Z,2.50
2023-04-15T08:17:56.087Z,2.90
2023-04-15T08:18:56.292Z,3.20
2023-04-15T08:19:56.019Z,4.00
2023-04-15T08:20:56.022Z,2.80
2023-04-15T08:21:55.991Z,3.50
2023-04-15T08:22:56.043Z,3.50
2023-04-15T08:23:55.935Z,3.20
2023-04-15T08:24:56.012Z,4.10
2023-04-15T08:25:55.923Z,3.00
2023-04-15T08:26:56.273Z,3.60
2023-04-15T08:27:55.939Z,3.70
2023-04-15T08:28:55.930Z,3.00
2023-04-15T08:29:55.882Z,2.80
2023-04-15T08:30:56.156Z,4.50
2023-04-15T08:31:55.913Z,2.50
2023-04-15T08:32:56.047Z,3.20
2023-04-15T08:33:55.834Z,3.50
2023-04-15T08:34:55.846Z,2.90
2023-04-15T08:35:55.863Z,2.40
2023-04-15T08:36:55.822Z,3.20
2023-04-15T08:37:56.089Z,2.70
2023-04-15T08:38:55.870Z,3.60
2023-04-15T08:39:55.830Z,3.40
2023-04-15T08:40:55.835Z,3.30
2023-04-15T08:41:55.782Z,2.80
2023-04-15T08:42:55.820Z,3.70
2023-04-15T08:43:55.719Z,2.60
2023-04-15T08:44:56.114Z,2.90
2023-04-15T08:45:55.797Z,3.20
2023-04-15T08:46:55.747Z,3.20
2023-04-15T08:47:55.768Z,3.20
2023-04-15T08:48:55.739Z,2.90
2023-04-15T08:49:55.716Z,3.30
2023-04-15T08:50:55.728Z,3.10
2023-04-15T08:51:55.928Z,2.00
2023-04-15T08:52:55.650Z,2.60
2023-04-15T08:53:55.609Z,2.90
2023-04-15T08:54:55.634Z,2.80
2023-04-15T08:55:55.600Z,3.10
2023-04-15T08:56:55.721Z,3.20
2023-04-15T08:57:55.669Z,2.40
2023-04-15T08:58:56.025Z,2.80
2023-04-15T08:59:55.612Z,3.00
2023-04-15T09:00:55.753Z,2.60
2023-04-15T09:01:55.670Z,2.70
2023-04-15T09:02:55.626Z,2.50
2023-04-15T09:03:55.767Z,2.70
2023-04-15T09:04:55.522Z,2.80
2023-04-15T09:05:55.828Z,3.20
2023-04-15T09:06:55.556Z,2.60
2023-04-15T09:07:55.556Z,2.90
2023-04-15T09:08:55.612Z,3.00
2023-04-15T09:09:55.561Z,2.60
2023-04-15T09:10:55.508Z,3.10
2023-04-15T09:11:55.504Z,3.30
2023-04-15T09:12:55.769Z,2.70
2023-04-15T09:13:55.473Z,3.90
2023-04-15T09:14:55.563Z,2.80
2023-04-15T09:15:55.402Z,2.40
2023-04-15T09:16:55.489Z,2.60
2023-04-15T09:17:55.606Z,3.40
2023-04-15T09:18:55.408Z,3.10
2023-04-15T09:19:55.693Z,2.70
2023-04-15T09:20:55.558Z,2.60
2023-04-15T09:21:57.985Z,2.60
2023-04-15T09:22:55.370Z,2.30
2023-04-15T09:23:55.381Z,2.60
2023-04-15T09:24:55.369Z,2.50
2023-04-15T09:25:55.427Z,3.90
2023-04-15T09:26:55.977Z,3.00
2023-04-15T09:27:55.372Z,2.50
2023-04-15T09:28:55.322Z,2.10
2023-04-15T09:29:55.310Z,3.10
2023-04-15T09:30:55.339Z,2.90
2023-04-15T09:31:55.298Z,2.90
2023-04-15T09:32:55.488Z,2.70
2023-04-15T09:33:55.494Z,3.00
2023-04-15T09:34:55.230Z,3.00
2023-04-15T09:35:55.249Z,2.70
2023-04-15T09:36:55.264Z,2.70
2023-04-15T09:37:55.219Z,2.60
2023-04-15T09:38:55.272Z,2.30
2023-04-15T09:39:55.173Z,2.70
2023-04-15T09:40:55.468Z,2.90
2023-04-15T09:41:55.188Z,2.30
2023-04-15T09:42:55.123Z,2.70
2023-04-15T09:43:55.120Z,3.00
2023-04-15T09:44:55.217Z,3.10
2023-04-15T09:45:55.214Z,2.60
2023-04-15T09:46:55.129Z,2.70
2023-04-15T09:47:56.897Z,2.90
2023-04-15T09:48:55.146Z,2.60
2023-04-15T09:49:55.197Z,3.10
2023-04-15T09:50:55.198Z,2.70
2023-04-15T09:52:04.967Z,2.90
2023-04-15T09:52:55.129Z,2.80
2023-04-15T09:53:55.254Z,3.40
2023-04-15T09:54:55.355Z,3.30
2023-04-15T09:55:55.045Z,2.40
2023-04-15T09:56:55.044Z,2.80
2023-04-15T09:57:55.031Z,3.10
2023-04-15T09:58:54.992Z,2.40
2023-04-15T09:59:55.003Z,2.60
2023-04-15T10:00:55.039Z,2.80
2023-04-15T10:01:55.469Z,2.70
2023-04-15T10:02:55.113Z,2.10
2023-04-15T10:03:55.179Z,2.30
2023-04-15T10:04:54.916Z,2.70
2023-04-15T10:05:54.991Z,1.90
2023-04-15T10:06:54.940Z,2.80
2023-04-15T10:07:54.958Z,2.70
2023-04-15T10:08:55.302Z,2.50
2023-04-15T10:09:54.975Z,3.20
2023-04-15T10:10:55.031Z,2.80
2023-04-15T10:11:54.936Z,2.90
2023-04-15T10:12:54.935Z,2.40
2023-04-15T10:13:54.862Z,3.00
2023-04-15T10:14:54.953Z,2.20
2023-04-15T10:15:55.137Z,2.50
2023-04-15T10:16:54.867Z,2.40
2023-04-15T10:17:54.839Z,2.60
2023-04-15T10:18:54.826Z,2.20
2023-04-15T10:19:54.796Z,2.60
2023-04-15T10:20:54.841Z,2.70
2023-04-15T10:21:54.751Z,2.70
2023-04-15T10:22:55.018Z,2.30
2023-04-15T10:23:54.724Z,2.30
2023-04-15T10:24:54.736Z,3.10
2023-04-15T10:25:54.727Z,2.20
2023-04-15T10:26:54.868Z,2.40
2023-04-15T10:27:54.693Z,2.70
2023-04-15T10:28:54.726Z,2.40
2023-04-15T10:29:54.970Z,2.10
2023-04-15T10:30:54.775Z,2.30
2023-04-15T10:31:54.636Z,2.40
2023-04-15T10:32:54.743Z,2.50
2023-04-15T10:33:54.620Z,2.10
2023-04-15T10:34:54.867Z,2.00
2023-04-15T10:35:54.620Z,2.20
2023-04-15T10:36:54.945Z,2.30
2023-04-15T10:37:54.606Z,2.40
2023-04-15T10:38:54.689Z,2.30
2023-04-15T10:39:54.615Z,2.20
2023-04-15T10:40:54.538Z,2.30
2023-04-15T10:41:54.567Z,1.90
2023-04-15T10:42:54.650Z,2.00
2023-04-15T10:43:54.982Z,1.50
2023-04-15T10:44:54.852Z,2.50
2023-04-15T10:45:54.730Z,2.20
2023-04-15T10:46:54.626Z,1.90
2023-04-15T10:47:54.545Z,2.60
2023-04-15T10:48:54.478Z,2.70
2023-04-15T10:49:54.472Z,2.30
2023-04-15T10:50:54.794Z,2.90
2023-04-15T10:51:54.465Z,2.70
2023-04-15T10:52:54.495Z,1.80
2023-04-15T10:53:54.513Z,1.80
2023-04-15T10:54:54.449Z,2.00
2023-04-15T10:55:54.384Z,1.80
2023-04-15T10:56:54.951Z,1.70
2023-04-15T10:57:54.697Z,2.10
2023-04-15T10:58:54.426Z,2.10
2023-04-15T10:59:54.411Z,2.10
2023-04-15T11:00:54.324Z,2.00
2023-04-15T11:01:54.511Z,2.20
2023-04-15T11:02:54.608Z,1.70
2023-04-15T11:03:54.488Z,2.40
2023-04-15T11:04:54.685Z,1.80
2023-04-15T11:05:54.298Z,1.80
2023-04-15T11:06:54.395Z,1.90
2023-04-15T11:07:54.300Z,2.10
2023-04-15T11:08:54.345Z,1.60
2023-04-15T11:09:54.275Z,1.40
2023-04-15T11:10:54.327Z,1.80
2023-04-15T11:11:54.522Z,1.80
2023-04-15T11:12:54.292Z,1.50
2023-04-15T11:13:54.220Z,1.80
2023-04-15T11:14:54.402Z,1.40
2023-04-15T11:15:54.239Z,1.50
2023-04-15T11:16:54.270Z,1.80
2023-04-15T11:17:54.318Z,1.70
2023-04-15T11:18:54.429Z,1.60
2023-04-15T11:19:54.194Z,1.40
2023-04-15T11:20:54.193Z,1.20
2023-04-15T11:21:54.209Z,1.20
2023-04-15T11:23:14.705Z,1.50
2023-04-15T11:23:54.141Z,1.50
2023-04-15T11:24:54.094Z,1.30
2023-04-15T11:25:54.395Z,1.60
2023-04-15T11:26:54.214Z,1.20
2023-04-15T11:27:54.121Z,1.90
2023-04-15T11:28:54.062Z,1.50
2023-04-15T11:29:53.986Z,1.40
2023-04-15T11:30:54.063Z,1.40
2023-04-15T11:31:54.060Z,1.60
2023-04-15T11:32:54.465Z,1.40
2023-04-15T11:33:54.084Z,1.60
2023-04-15T11:34:54.036Z,1.30
2023-04-15T11:35:54.129Z,1.20
2023-04-15T11:36:54.076Z,1.80
2023-04-15T11:37:54.046Z,1.80
2023-04-15T11:38:53.998Z,2.10
2023-04-15T11:39:54.277Z,1.30
2023-04-15T11:40:53.927Z,1.90
2023-04-15T11:41:53.987Z,1.40
2023-04-15T11:42:53.941Z,1.90
2023-04-15T11:43:53.921Z,1.80
2023-04-15T11:44:54.011Z,2.00
2023-04-15T11:45:54.025Z,1.70
2023-04-15T11:46:54.206Z,1.30
2023-04-15T11:47:54.055Z,1.50
2023-04-15T11:48:53.884Z,1.70
2023-04-15T11:49:53.848Z,1.20
2023-04-15T11:50:54.040Z,1.40
2023-04-15T11:51:53.825Z,1.50
2023-04-15T11:52:53.804Z,1.50
2023-04-15T11:53:53.804Z,1.40
2023-04-15T11:54:53.743Z,1.20
2023-04-15T11:55:53.840Z,1.20
2023-04-15T11:56:53.848Z,1.30
2023-04-15T11:57:53.815Z,1.50
2023-04-15T11:58:53.738Z,1.40
2023-04-15T11:59:54.088Z,1.40
2023-04-15T12:00:53.764Z,1.40
2023-04-15T12:01:53.737Z,1.00
2023-04-15T12:02:53.862Z,1.20
2023-04-15T12:03:53.873Z,1.70
2023-04-15T12:04:53.870Z,1.50
2023-04-15T12:05:53.670Z,1.50
2023-04-15T12:06:53.724Z,1.10
2023-04-15T12:07:53.665Z,1.20
2023-04-15T12:08:53.793Z,1.40
2023-04-15T12:09:53.717Z,1.50
2023-04-15T12:10:53.692Z,1.30
2023-04-15T12:11:53.953Z,1.30
2023-04-15T12:12:53.597Z,1.00
2023-04-15T12:13:53.577Z,1.40
2023-04-15T12:14:53.642Z,1.10
2023-04-15T12:15:53.688Z,1.70
2023-04-15T12:16:53.526Z,1.70
2023-04-15T12:17:53.669Z,1.20
2023-04-15T12:18:53.536Z,1.00
2023-04-15T12:19:53.594Z,1.30
2023-04-15T12:20:53.566Z,1.90
2023-04-15T12:21:53.623Z,1.50
2023-04-15T12:22:53.653Z,1.20
2023-04-15T12:23:53.964Z,1.10
2023-04-15T12:24:53.584Z,1.30
2023-04-15T12:25:53.607Z,1.50
2023-04-15T12:26:53.662Z,1.70
2023-04-15T12:27:53.522Z,1.20
2023-04-15T12:28:53.453Z,1.10
2023-04-15T12:29:53.420Z,1.20
2023-04-15T12:30:53.816Z,1.20
2023-04-15T12:31:53.401Z,1.00
2023-04-15T12:32:53.456Z,1.10
2023-04-15T12:33:53.430Z,1.40
2023-04-15T12:34:53.357Z,1.20
2023-04-15T12:35:53.359Z,1.30
2023-04-15T12:36:53.342Z,1.50
2023-04-15T12:37:53.674Z,1.10
2023-04-15T12:38:53.440Z,1.40
2023-04-15T12:39:53.387Z,1.30
2023-04-15T12:40:53.358Z,1.20
2023-04-15T12:41:53.381Z,1.70
2023-04-15T12:42:53.303Z,1.10
2023-04-15T12:43:53.294Z,1.40
2023-04-15T12:44:53.635Z,1.70
2023-04-15T12:45:53.317Z,1.60
2023-04-15T12:46:53.374Z,1.40
2023-04-15T12:47:53.284Z,1.40
2023-04-15T12:48:53.240Z,1.50
2023-04-15T12:49:53.248Z,1.70
2023-04-15T12:50:53.292Z,1.50
2023-04-15T12:51:53.296Z,1.30
2023-04-15T12:52:53.283Z,1.40
2023-04-15T12:53:53.266Z,1.40
2023-04-15T12:54:53.236Z,1.10
2023-04-15T12:55:53.205Z,1.30
2023-04-15T12:56:53.203Z,1.20
2023-04-15T12:57:53.492Z,1.00
2023-04-15T12:58:53.130Z,1.10
2023-04-15T12:59:53.118Z,0.90
2023-04-15T13:00:53.169Z,1.20
2023-04-15T13:01:53.229Z,1.30
2023-04-15T13:02:53.264Z,1.20
2023-04-15T13:03:53.104Z,1.10
2023-04-15T13:04:53.533Z,1.30
2023-04-15T13:05:53.186Z,1.00
2023-04-15T13:06:53.091Z,1.50
2023-04-15T13:07:53.130Z,1.20
2023-04-15T13:08:58.253Z,1.20
2023-04-15T13:09:53.068Z,1.00
2023-04-15T13:10:53.035Z,1.10
2023-04-15T13:11:53.341Z,1.10
2023-04-15T13:12:52.941Z,1.20
2023-04-15T13:13:53.075Z,1.40
2023-04-15T13:14:53.064Z,1.20
2023-04-15T13:15:52.926Z,1.00
2023-04-15T13:16:53.030Z,1.30
2023-04-15T13:17:53.051Z,1.10